Terminal Aerodrome Forecast
Issued by NWS

Home | Current Version | Previous Version | Graphics & Text | Print | Product List | Glossary On
Versions: 1 2 3 4 5 6 7 8 9 10 11 12 13 14 15
230
FTUS42 KMHX 211738
TAFISO
TAF
KISO 211738Z 2118/2218 27007KT P6SM FEW250
     FM220400 VRB04KT P6SM -SHRA BKN140
     FM220900 04008KT P6SM -SHRA OVC030
     FM221200 02011KT P6SM OVC035
     FM221700 01015KT P6SM SCT130
      AMD LTD TO CLD VIS AND WIND=

USA.gov is the U.S. government's official web portal to all federal, state and local government web resources and services.